Time;durP1;ratioP1;P1;durP2;ratioP2;P2;SDS_P1;SDS_P2;PMS_P1;PMS_P2;Temp;Humidity;BMP_temperature;BMP_pressure;BME280_temperature;BME280_humidity;BME280_pressure;Samples;Min_cycle;Max_cycle;Signal;HPM_P1;HPM_P2
2020/12/13 00:00:32;;;;;;;9.13;5.50;;;7.00;99.90;;;;;;5016474;28;20042;-81
2020/12/13 00:02:58;;;;;;;7.50;4.70;;;7.00;99.90;;;;;;5018758;28;20133;-81
2020/12/13 00:05:24;;;;;;;12.65;6.07;;;7.00;99.90;;;;;;5004741;28;20414;-81
2020/12/13 00:07:50;;;;;;;10.93;5.78;;;7.00;99.90;;;;;;5006281;28;20145;-80
2020/12/13 00:10:16;;;;;;;8.93;5.40;;;7.10;99.90;;;;;;5023685;28;20046;-80
2020/12/13 00:12:42;;;;;;;7.15;4.90;;;7.10;99.90;;;;;;5012467;28;20057;-81
2020/12/13 00:15:08;;;;;;;12.43;4.70;;;7.10;99.90;;;;;;5027323;28;20050;-80
2020/12/13 00:17:34;;;;;;;8.52;4.55;;;7.10;99.90;;;;;;5015048;28;20093;-81
2020/12/13 00:19:59;;;;;;;9.70;4.95;;;7.10;99.90;;;;;;5014317;28;20109;-81
2020/12/13 00:22:25;;;;;;;10.95;5.25;;;7.10;99.90;;;;;;5015108;28;20467;-82
2020/12/13 00:24:50;;;;;;;11.15;6.00;;;7.10;99.90;;;;;;5016819;28;20041;-82
2020/12/13 00:27:16;;;;;;;9.95;4.78;;;7.10;99.90;;;;;;5015696;28;20093;-81
2020/12/13 00:29:42;;;;;;;10.73;5.45;;;7.10;99.90;;;;;;5036832;28;20038;-82
2020/12/13 00:32:08;;;;;;;8.63;5.22;;;7.10;99.90;;;;;;5017831;28;20042;-82
2020/12/13 00:34:34;;;;;;;10.32;5.60;;;7.10;99.90;;;;;;5019388;28;20022;-81
2020/12/13 00:37:00;;;;;;;8.55;4.97;;;7.10;99.90;;;;;;5029964;28;20065;-82
2020/12/13 00:39:26;;;;;;;8.10;5.22;;;7.00;99.90;;;;;;5023958;28;20104;-82
2020/12/13 00:41:52;;;;;;;11.73;4.85;;;7.00;99.90;;;;;;5019252;28;20038;-81
2020/12/13 00:44:18;;;;;;;12.02;5.00;;;7.00;99.90;;;;;;5018849;28;20038;-82
2020/12/13 00:46:45;;;;;;;10.85;5.53;;;7.00;99.90;;;;;;5014482;28;20559;-81
2020/12/13 00:49:10;;;;;;;10.05;4.65;;;7.00;99.90;;;;;;5016736;28;20076;-81
2020/12/13 00:51:36;;;;;;;9.68;5.07;;;7.00;99.90;;;;;;5031155;28;20046;-82
2020/12/13 00:54:02;;;;;;;8.55;4.70;;;7.00;99.90;;;;;;5035014;28;20061;-83
2020/12/13 00:56:27;;;;;;;12.10;4.35;;;7.10;99.90;;;;;;5015304;28;20050;-83
2020/12/13 00:58:53;;;;;;;11.77;4.85;;;7.00;99.90;;;;;;5020605;28;20089;-81
2020/12/13 01:01:18;;;;;;;8.80;4.57;;;7.00;99.90;;;;;;5018652;28;20045;-82
2020/12/13 01:03:44;;;;;;;8.40;4.75;;;6.90;99.90;;;;;;5021822;28;20069;-82
2020/12/13 01:06:09;;;;;;;7.30;4.57;;;6.90;99.90;;;;;;5019960;28;20048;-81
2020/12/13 01:08:35;;;;;;;12.73;4.00;;;7.00;99.90;;;;;;5017264;28;20108;-82
2020/12/13 01:11:01;;;;;;;7.10;3.90;;;6.90;99.90;;;;;;5028830;28;20034;-82
2020/12/13 01:13:26;;;;;;;8.07;5.10;;;6.90;99.90;;;;;;5025588;28;20431;-81
2020/12/13 01:15:53;;;;;;;11.15;4.10;;;7.00;99.90;;;;;;5033638;28;20042;-81
2020/12/13 01:18:20;;;;;;;6.85;3.60;;;7.00;99.90;;;;;;5010205;28;20188;-81
2020/12/13 01:20:45;;;;;;;6.40;3.63;;;6.90;99.90;;;;;;5026120;28;20337;-81
2020/12/13 01:23:11;;;;;;;6.50;3.67;;;6.90;99.90;;;;;;5008603;28;20041;-80
2020/12/13 01:25:36;;;;;;;6.30;4.07;;;6.90;99.90;;;;;;5011399;28;20048;-81
2020/12/13 01:28:02;;;;;;;6.85;3.63;;;6.90;99.90;;;;;;5016966;28;20058;-81
2020/12/13 01:30:27;;;;;;;7.30;3.67;;;6.90;99.90;;;;;;5018485;28;20389;-82
2020/12/13 01:32:53;;;;;;;8.40;4.28;;;6.90;99.90;;;;;;5016711;28;20046;-82
2020/12/13 01:35:18;;;;;;;4.97;3.70;;;6.90;99.90;;;;;;5018332;28;20137;-81
2020/12/13 01:37:44;;;;;;;6.05;3.55;;;6.80;99.90;;;;;;5016870;28;20053;-81
2020/12/13 01:40:10;;;;;;;6.88;3.85;;;6.90;99.90;;;;;;5033974;28;20053;-81
2020/12/13 01:42:40;;;;;;;6.75;3.70;;;6.80;99.90;;;;;;5016403;28;20161;-82
2020/12/13 01:45:12;;;;;;;7.95;3.60;;;6.90;99.90;;;;;;5019874;28;20053;-83
2020/12/13 01:47:39;;;;;;;6.50;3.80;;;6.90;99.90;;;;;;5034009;28;20038;-82
2020/12/13 01:50:08;;;;;;;10.13;3.92;;;6.80;99.90;;;;;;5017288;28;20597;-82
2020/12/13 01:52:47;;;;;;;6.68;3.38;;;6.90;99.90;;;;;;5003349;28;20060;-81
2020/12/13 01:55:17;;;;;;;5.45;3.65;;;6.80;99.90;;;;;;5027740;28;20088;-82
2020/12/13 01:57:47;;;;;;;5.63;3.70;;;6.70;99.90;;;;;;5012727;28;20081;-82
2020/12/13 02:00:15;;;;;;;9.30;3.30;;;6.80;99.90;;;;;;5012763;28;20033;-82
2020/12/13 02:02:44;;;;;;;6.57;3.45;;;6.80;99.90;;;;;;5016591;28;20050;-83
2020/12/13 02:05:13;;;;;;;6.45;3.60;;;6.70;99.90;;;;;;5034200;28;20048;-83
2020/12/13 02:07:40;;;;;;;7.95;3.55;;;6.70;99.90;;;;;;5016880;28;20111;-82
2020/12/13 02:10:10;;;;;;;5.82;3.65;;;6.70;99.90;;;;;;5017936;28;20049;-82
2020/12/13 02:12:37;;;;;;;5.90;3.65;;;6.80;99.90;;;;;;5023137;28;20533;-81
2020/12/13 02:15:07;;;;;;;7.85;4.07;;;6.80;99.90;;;;;;5017844;28;20050;-81
2020/12/13 02:17:36;;;;;;;7.50;3.63;;;6.80;99.90;;;;;;5016270;28;20049;-82
2020/12/13 02:20:09;;;;;;;7.13;3.78;;;6.80;99.90;;;;;;5022388;28;20041;-81
2020/12/13 02:22:41;;;;;;;8.73;3.63;;;6.80;99.90;;;;;;5020529;28;20042;-84
2020/12/13 02:25:11;;;;;;;7.30;2.70;;;6.80;99.90;;;;;;5019504;28;20030;-81
2020/12/13 02:27:38;;;;;;;4.95;3.70;;;6.80;99.90;;;;;;5017540;28;20121;-81
2020/12/13 02:30:05;;;;;;;7.68;3.35;;;6.80;99.90;;;;;;5022181;28;20503;-81
2020/12/13 02:32:31;;;;;;;8.48;3.47;;;6.90;99.90;;;;;;5018314;28;22419;-80
2020/12/13 02:34:56;;;;;;;7.57;3.70;;;6.90;99.90;;;;;;5015780;28;20040;-80
2020/12/13 02:37:22;;;;;;;9.00;3.15;;;6.90;99.90;;;;;;5013632;28;20046;-81
2020/12/13 02:39:48;;;;;;;6.38;3.05;;;6.90;99.90;;;;;;5032676;28;20018;-80
2020/12/13 02:42:14;;;;;;;8.57;3.92;;;7.00;99.90;;;;;;5018191;28;20224;-81
2020/12/13 02:44:40;;;;;;;7.85;3.20;;;7.00;99.90;;;;;;5019791;28;20081;-81
2020/12/13 02:47:05;;;;;;;6.15;3.53;;;7.00;99.90;;;;;;5021284;28;20044;-82
2020/12/13 02:49:31;;;;;;;7.38;3.20;;;7.00;99.90;;;;;;5037273;28;20041;-83
2020/12/13 02:51:56;;;;;;;5.10;2.78;;;7.00;99.90;;;;;;5019684;28;20038;-81
2020/12/13 02:54:22;;;;;;;6.13;3.50;;;7.00;99.90;;;;;;5021083;28;20037;-80
2020/12/13 02:56:47;;;;;;;4.95;3.13;;;7.00;99.90;;;;;;5017264;28;20052;-81
2020/12/13 02:59:13;;;;;;;5.75;3.25;;;7.00;99.90;;;;;;5015588;28;20030;-81
2020/12/13 03:01:39;;;;;;;5.15;3.03;;;7.00;99.90;;;;;;5013512;28;20038;-81
2020/12/13 03:04:04;;;;;;;4.53;2.70;;;7.00;99.90;;;;;;5016454;28;20040;-81
2020/12/13 03:06:30;;;;;;;6.30;3.20;;;7.00;99.90;;;;;;5011843;28;20045;-82
2020/12/13 03:08:55;;;;;;;5.47;3.05;;;7.00;99.90;;;;;;5013782;28;20030;-81
2020/12/13 03:11:22;;;;;;;5.38;3.00;;;7.00;99.90;;;;;;5015963;28;20033;-82
2020/12/13 03:13:49;;;;;;;5.47;3.10;;;7.00;99.90;;;;;;5015453;28;20034;-81
2020/12/13 03:16:15;;;;;;;6.15;2.75;;;7.00;99.90;;;;;;5015407;28;20417;-83
2020/12/13 03:18:41;;;;;;;5.25;3.00;;;7.00;99.90;;;;;;5019482;28;20034;-81
2020/12/13 03:21:06;;;;;;;4.22;2.67;;;7.00;99.90;;;;;;5017847;28;20038;-81
2020/12/13 03:23:32;;;;;;;7.00;2.63;;;6.90;99.90;;;;;;5013787;28;20037;-80
2020/12/13 03:25:57;;;;;;;3.97;2.60;;;6.90;99.90;;;;;;5014799;28;20416;-80
2020/12/13 03:28:23;;;;;;;5.15;2.92;;;6.90;99.90;;;;;;5013585;28;20100;-80
2020/12/13 03:30:49;;;;;;;6.28;3.72;;;6.90;99.90;;;;;;5011822;28;20046;-81
2020/12/13 03:33:14;;;;;;;5.00;2.92;;;6.80;99.90;;;;;;5013873;28;20034;-80
2020/12/13 03:35:40;;;;;;;6.35;3.28;;;6.80;99.90;;;;;;5013440;28;20048;-80
2020/12/13 03:38:05;;;;;;;4.38;2.92;;;6.80;99.90;;;;;;5015899;28;20209;-80
2020/12/13 03:40:31;;;;;;;4.85;2.80;;;6.80;99.90;;;;;;5035430;28;20045;-80
2020/12/13 03:42:57;;;;;;;5.95;3.33;;;6.80;99.90;;;;;;5025970;28;20048;-80
2020/12/13 03:45:22;;;;;;;7.18;3.28;;;6.70;99.90;;;;;;5030538;28;20042;-81
2020/12/13 03:47:48;;;;;;;6.38;2.83;;;6.70;99.90;;;;;;5029122;28;20044;-81
2020/12/13 03:50:13;;;;;;;4.90;2.85;;;6.70;99.90;;;;;;5030356;28;20049;-81
2020/12/13 03:52:39;;;;;;;6.30;2.97;;;6.80;99.90;;;;;;5024497;28;20049;-80
2020/12/13 03:55:04;;;;;;;5.15;2.50;;;6.70;99.90;;;;;;5006981;28;20044;-80
2020/12/13 03:57:30;;;;;;;4.13;2.80;;;6.70;99.90;;;;;;5005130;28;20049;-80
2020/12/13 03:59:55;;;;;;;3.90;2.60;;;6.70;99.90;;;;;;5009309;28;20050;-80
2020/12/13 04:02:21;;;;;;;7.07;2.88;;;6.70;99.90;;;;;;5010056;28;20487;-80
2020/12/13 04:04:46;;;;;;;4.82;3.08;;;6.70;99.90;;;;;;5010760;28;20049;-80
2020/12/13 04:07:12;;;;;;;4.25;2.65;;;6.80;99.90;;;;;;5025173;28;20125;-80
2020/12/13 04:09:37;;;;;;;5.25;3.20;;;6.80;99.90;;;;;;5016408;28;20033;-81
2020/12/13 04:12:03;;;;;;;4.78;2.47;;;6.80;99.90;;;;;;5015051;28;20105;-81
2020/12/13 04:14:29;;;;;;;5.15;3.13;;;6.80;99.90;;;;;;5015789;28;20037;-82
2020/12/13 04:16:54;;;;;;;7.18;2.45;;;6.80;99.90;;;;;;5026755;28;20053;-81
2020/12/13 04:19:20;;;;;;;6.78;3.20;;;6.80;99.90;;;;;;5015296;28;20034;-82
2020/12/13 04:21:45;;;;;;;7.22;3.20;;;6.80;99.90;;;;;;5018928;28;20042;-81
2020/12/13 04:24:11;;;;;;;6.55;3.25;;;6.80;99.90;;;;;;5018119;28;20044;-81
2020/12/13 04:26:37;;;;;;;6.68;2.83;;;6.80;99.90;;;;;;5020996;28;20041;-81
2020/12/13 04:29:02;;;;;;;6.15;2.78;;;6.90;99.90;;;;;;5037910;28;20121;-82
2020/12/13 04:31:28;;;;;;;5.38;2.70;;;6.90;99.90;;;;;;5022947;28;20045;-82
2020/12/13 04:33:54;;;;;;;4.00;2.45;;;6.90;99.90;;;;;;5034461;28;20045;-82
2020/12/13 04:36:19;;;;;;;6.85;2.80;;;6.90;99.90;;;;;;5018120;28;20041;-83
2020/12/13 04:38:45;;;;;;;5.20;2.70;;;7.00;99.90;;;;;;5019492;28;20042;-83
2020/12/13 04:41:11;;;;;;;3.67;2.20;;;7.00;99.90;;;;;;5022954;28;20034;-82
2020/12/13 04:43:37;;;;;;;4.28;2.40;;;6.90;99.90;;;;;;5025010;28;20046;-82
2020/12/13 04:46:03;;;;;;;4.43;2.53;;;6.90;99.90;;;;;;5024316;28;20030;-82
2020/12/13 04:48:29;;;;;;;4.78;2.65;;;6.90;99.90;;;;;;5041528;28;20125;-83
2020/12/13 04:50:58;;;;;;;4.82;2.50;;;6.90;99.90;;;;;;5025651;28;20030;-82
2020/12/13 04:53:28;;;;;;;4.90;2.70;;;6.90;99.90;;;;;;5041028;28;20037;-81
2020/12/13 04:55:58;;;;;;;5.07;2.35;;;6.90;99.90;;;;;;5041101;28;20090;-82
2020/12/13 04:58:26;;;;;;;4.20;2.50;;;7.00;99.90;;;;;;5021696;28;20825;-81
2020/12/13 05:00:56;;;;;;;6.15;2.72;;;7.00;99.90;;;;;;5021607;28;20053;-81
2020/12/13 05:03:25;;;;;;;4.60;2.20;;;6.90;99.90;;;;;;5021129;28;20049;-80
2020/12/13 05:05:51;;;;;;;3.65;2.10;;;7.00;99.90;;;;;;5021608;28;20065;-81
2020/12/13 05:08:18;;;;;;;3.45;2.00;;;6.90;99.90;;;;;;5032537;28;20037;-80
2020/12/13 05:10:44;;;;;;;4.53;2.15;;;6.90;99.90;;;;;;5022100;28;20069;-81
2020/12/13 05:13:10;;;;;;;4.15;2.45;;;7.00;99.90;;;;;;5023231;28;20045;-81
2020/12/13 05:15:37;;;;;;;7.07;2.60;;;6.90;99.90;;;;;;5039418;28;20046;-81
2020/12/13 05:18:04;;;;;;;4.05;2.17;;;6.80;99.90;;;;;;5036258;28;20034;-81
2020/12/13 05:20:30;;;;;;;3.45;2.25;;;6.90;99.90;;;;;;5022476;28;20133;-82
2020/12/13 05:22:57;;;;;;;4.05;2.22;;;6.80;99.90;;;;;;5033569;28;20046;-81
2020/12/13 05:25:34;;;;;;;6.85;2.45;;;6.80;99.90;;;;;;5026990;28;20066;-82
2020/12/13 05:28:02;;;;;;;6.00;2.25;;;6.80;99.90;;;;;;5013119;28;20050;-81
2020/12/13 05:30:33;;;;;;;4.35;2.22;;;6.90;99.90;;;;;;5015129;28;20458;-81
2020/12/13 05:33:07;;;;;;;4.85;2.58;;;6.90;99.90;;;;;;5018333;28;20054;-81
2020/12/13 05:35:32;;;;;;;;;;;7.00;99.90;;;;;;5017832;28;20085;-82
2020/12/13 05:37:58;;;;;;;3.38;2.13;;;7.00;99.90;;;;;;5016370;28;20480;-81
2020/12/13 05:40:25;;;;;;;4.28;2.60;;;7.00;99.90;;;;;;5020338;28;20030;-81
2020/12/13 05:43:05;;;;;;;3.75;2.03;;;7.00;99.90;;;;;;5037485;28;20046;-82
2020/12/13 05:53:02;;;;;;;3.85;2.20;;;7.00;99.90;;;;;;5017871;28;20064;-81
2020/12/13 05:55:28;;;;;;;3.60;1.95;;;7.10;99.90;;;;;;5021286;28;20076;-82
2020/12/13 05:57:54;;;;;;;3.72;1.95;;;7.10;99.90;;;;;;5035981;28;20310;-82
2020/12/13 06:00:20;;;;;;;3.58;2.38;;;7.10;99.90;;;;;;5018963;28;20042;-81
2020/12/13 06:02:49;;;;;;;6.65;2.08;;;7.10;99.90;;;;;;5022978;28;20056;-82
2020/12/13 06:05:15;;;;;;;3.58;2.53;;;7.10;99.90;;;;;;5021820;28;20060;-81
2020/12/13 06:07:48;;;;;;;3.90;2.10;;;7.20;99.90;;;;;;5018122;28;20037;-81
2020/12/13 06:10:24;;;;;;;4.18;2.13;;;7.20;99.90;;;;;;5036584;28;20049;-82
2020/12/13 06:13:08;;;;;;;2.88;1.80;;;7.20;99.90;;;;;;5023315;28;20057;-82
2020/12/13 06:15:35;;;;;;;6.22;2.03;;;7.10;99.90;;;;;;5031213;28;20397;-80
2020/12/13 06:18:05;;;;;;;4.78;1.98;;;7.20;99.90;;;;;;5027943;28;20058;-82
2020/12/13 06:20:32;;;;;;;3.38;1.50;;;7.20;99.90;;;;;;5032425;28;20047;-81
2020/12/13 06:23:00;;;;;;;3.50;1.77;;;7.30;99.90;;;;;;5023309;28;20048;-81
2020/12/13 06:25:26;;;;;;;3.40;1.80;;;7.30;99.90;;;;;;5011049;28;20144;-81
2020/12/13 06:27:52;;;;;;;3.10;1.70;;;7.20;99.90;;;;;;5014473;28;20042;-81
2020/12/13 06:30:19;;;;;;;2.47;1.60;;;7.30;99.90;;;;;;5016026;28;20034;-81
2020/12/13 06:32:47;;;;;;;3.00;1.80;;;7.30;99.90;;;;;;5020006;28;20354;-81
2020/12/13 06:35:13;;;;;;;2.63;1.63;;;7.30;99.90;;;;;;5019623;28;20048;-81
2020/12/13 06:37:39;;;;;;;3.55;1.95;;;7.20;99.90;;;;;;5018853;28;20053;-81
2020/12/13 06:40:10;;;;;;;2.20;1.42;;;7.20;99.90;;;;;;5022038;28;20038;-81
2020/12/13 06:42:41;;;;;;;2.22;1.40;;;7.20;99.90;;;;;;5021972;28;20076;-81
2020/12/13 06:45:09;;;;;;;1.27;1.17;;;7.20;99.90;;;;;;5019846;28;20072;-81
2020/12/13 06:47:39;;;;;;;2.28;1.50;;;7.20;99.90;;;;;;5019383;28;20072;-81
2020/12/13 06:50:05;;;;;;;2.67;1.38;;;7.30;99.90;;;;;;5019038;28;20048;-82
2020/12/13 06:52:34;;;;;;;2.60;1.50;;;7.20;99.90;;;;;;5016758;28;20510;-82
2020/12/13 06:55:02;;;;;;;2.10;1.40;;;7.20;99.90;;;;;;5015948;28;20046;-82
2020/12/13 06:57:30;;;;;;;2.90;1.65;;;7.20;99.90;;;;;;5016052;28;20513;-81
2020/12/13 06:59:56;;;;;;;3.20;1.67;;;7.30;99.90;;;;;;5018700;28;20046;-82
2020/12/13 07:02:44;;;;;;;1.98;1.42;;;7.20;99.90;;;;;;5019877;28;20065;-81
2020/12/13 07:05:10;;;;;;;2.13;1.35;;;7.20;99.90;;;;;;5032454;28;20042;-81
2020/12/13 07:07:37;;;;;;;3.10;1.95;;;7.30;99.90;;;;;;5030948;28;20106;-80
2020/12/13 07:10:07;;;;;;;3.15;1.58;;;7.20;99.90;;;;;;5017681;28;20037;-80
2020/12/13 07:12:33;;;;;;;3.35;1.40;;;7.30;99.90;;;;;;5010347;28;20069;-81
2020/12/13 07:14:59;;;;;;;2.92;1.70;;;7.20;99.90;;;;;;5011001;28;20041;-81
2020/12/13 07:17:30;;;;;;;3.15;1.70;;;7.30;99.90;;;;;;5011628;28;20724;-80
2020/12/13 07:19:58;;;;;;;3.17;1.50;;;7.20;99.90;;;;;;5020465;28;20049;-81
2020/12/13 07:22:32;;;;;;;1.70;1.33;;;7.20;99.90;;;;;;5022070;28;20065;-83
2020/12/13 07:24:58;;;;;;;;;;;7.30;99.90;;;;;;5021806;28;20049;-82
2020/12/13 07:27:26;;;;;;;2.45;1.38;;;7.20;99.90;;;;;;5019049;28;19921;-83
2020/12/13 07:29:56;;;;;;;2.03;1.23;;;7.20;99.90;;;;;;5018578;28;20038;-81
2020/12/13 07:32:23;;;;;;;1.60;1.02;;;7.20;99.90;;;;;;5029879;28;20030;-80
2020/12/13 07:34:49;;;;;;;1.77;1.33;;;7.20;99.90;;;;;;5016516;28;20038;-80
2020/12/13 07:37:16;;;;;;;2.03;1.02;;;7.30;99.90;;;;;;5016635;28;20038;-81
2020/12/13 07:39:41;;;;;;;6.90;1.30;;;7.20;99.90;;;;;;5018061;28;20049;-81
2020/12/13 07:42:08;;;;;;;3.40;1.42;;;7.20;99.90;;;;;;5016304;28;20042;-81
2020/12/13 07:44:34;;;;;;;1.83;1.20;;;7.20;99.90;;;;;;5018597;28;20053;-81
2020/12/13 07:46:59;;;;;;;4.38;1.92;;;7.20;99.90;;;;;;5031597;28;20042;-82
2020/12/13 07:49:25;;;;;;;3.17;1.00;;;7.20;99.90;;;;;;5018397;28;20524;-80
2020/12/13 07:51:52;;;;;;;3.10;1.52;;;7.30;99.90;;;;;;5018294;28;20091;-82
2020/12/13 07:54:22;;;;;;;6.13;2.03;;;7.20;99.90;;;;;;5020332;28;20048;-81
2020/12/13 07:56:55;;;;;;;2.78;1.65;;;7.20;99.90;;;;;;5033411;28;20044;-82
2020/12/13 07:59:22;;;;;;;2.17;1.33;;;7.20;99.90;;;;;;5033283;28;20113;-82
2020/12/13 08:01:53;;;;;;;4.47;1.83;;;7.10;99.90;;;;;;5019358;28;20037;-81
2020/12/13 08:04:36;;;;;;;4.88;2.28;;;7.10;99.90;;;;;;5034157;28;20045;-82
2020/12/13 08:07:05;;;;;;;3.45;1.52;;;7.10;99.90;;;;;;5018429;28;20033;-82
2020/12/13 08:09:30;;;;;;;6.38;2.75;;;7.10;99.90;;;;;;5017306;28;20042;-82
2020/12/13 08:11:56;;;;;;;35.05;11.65;;;7.10;99.90;;;;;;5020346;28;20018;-81
2020/12/13 08:14:24;;;;;;;5.82;3.20;;;7.10;99.90;;;;;;5017032;28;20041;-81
2020/12/13 08:16:54;;;;;;;12.70;4.50;;;7.20;99.90;;;;;;5013941;28;20097;-81
2020/12/13 08:19:28;;;;;;;10.25;3.95;;;7.20;99.90;;;;;;5008497;28;20042;-83
2020/12/13 08:22:04;;;;;;;9.15;3.28;;;7.20;99.90;;;;;;5019692;28;20034;-84
2020/12/13 08:24:30;;;;;;;9.10;3.33;;;7.20;99.90;;;;;;5019994;28;20097;-85
2020/12/13 08:27:00;;;;;;;4.28;2.47;;;7.20;99.90;;;;;;5022533;28;20038;-82
2020/12/13 08:29:28;;;;;;;21.15;5.60;;;7.20;99.90;;;;;;5019687;28;20057;-81
2020/12/13 08:31:56;;;;;;;10.02;3.60;;;7.20;99.90;;;;;;5020035;28;20034;-82
2020/12/13 08:34:25;;;;;;;2.53;1.67;;;7.20;99.90;;;;;;5014495;28;20096;-80
2020/12/13 08:36:52;;;;;;;6.18;2.60;;;7.30;99.90;;;;;;5017036;28;20046;-82
2020/12/13 08:39:29;;;;;;;5.32;1.80;;;7.20;99.90;;;;;;4995304;28;20034;-82
2020/12/13 08:41:57;;;;;;;4.55;1.92;;;7.30;99.90;;;;;;5006656;28;20094;-82
2020/12/13 08:44:32;;;;;;;4.70;2.05;;;7.30;99.90;;;;;;4993112;28;20041;-81
2020/12/13 08:47:00;;;;;;;5.38;2.85;;;7.30;99.90;;;;;;4990299;28;20042;-79
2020/12/13 08:49:30;;;;;;;10.00;3.42;;;7.40;99.90;;;;;;5007065;28;20040;-82
2020/12/13 08:51:56;;;;;;;4.97;2.10;;;7.40;99.90;;;;;;5032513;28;20026;-82
2020/12/13 08:54:21;;;;;;;6.90;2.20;;;7.50;99.90;;;;;;4982900;28;20068;-79
2020/12/13 08:56:52;;;;;;;4.05;2.40;;;7.60;99.90;;;;;;4995365;28;20423;-81
2020/12/13 08:59:22;;;;;;;4.90;2.70;;;7.60;99.90;;;;;;5005328;28;20412;-81
2020/12/13 09:02:02;;;;;;;3.65;1.90;;;7.70;99.90;;;;;;4996184;28;20699;-82
2020/12/13 09:04:30;;;;;;;5.05;2.25;;;7.80;99.90;;;;;;5006152;28;20046;-80
2020/12/13 09:06:58;;;;;;;4.30;2.28;;;7.80;99.90;;;;;;5011789;28;20042;-80
2020/12/13 09:09:31;;;;;;;5.03;2.60;;;7.70;99.90;;;;;;5007560;28;20123;-80
2020/12/13 09:11:58;;;;;;;3.10;2.25;;;7.80;99.90;;;;;;5006603;28;20781;-82
2020/12/13 09:14:27;;;;;;;3.63;2.30;;;7.90;99.90;;;;;;5030145;28;20053;-79
2020/12/13 09:16:53;;;;;;;5.95;2.60;;;7.90;99.90;;;;;;5014422;28;20052;-81
2020/12/13 09:19:19;;;;;;;4.45;2.67;;;7.90;99.90;;;;;;5018607;28;20105;-80
2020/12/13 09:21:59;;;;;;;4.13;2.28;;;7.90;99.90;;;;;;5021448;28;20042;-81
2020/12/13 09:24:32;;;;;;;4.53;2.47;;;7.90;99.90;;;;;;5020165;28;20526;-80
2020/12/13 09:27:06;;;;;;;5.63;3.38;;;7.90;99.90;;;;;;5033004;28;20030;-81
2020/12/13 09:29:35;;;;;;;7.00;3.20;;;8.00;99.90;;;;;;5018443;28;20121;-80
2020/12/13 09:32:02;;;;;;;6.22;2.67;;;8.00;99.90;;;;;;5020125;28;20050;-82
2020/12/13 09:34:28;;;;;;;4.68;2.47;;;8.00;99.90;;;;;;5018920;28;20065;-82
2020/12/13 09:36:54;;;;;;;5.22;2.75;;;8.00;99.90;;;;;;5040403;28;20065;-84
2020/12/13 09:39:22;;;;;;;4.35;2.88;;;8.00;99.90;;;;;;5024879;28;20229;-83
2020/12/13 09:41:53;;;;;;;5.57;2.95;;;8.00;99.90;;;;;;5026323;28;20022;-82
2020/12/13 09:44:23;;;;;;;6.57;3.13;;;8.10;99.90;;;;;;5023932;28;20144;-82
2020/12/13 09:46:55;;;;;;;7.97;2.95;;;8.10;99.90;;;;;;5018533;28;20244;-82
2020/12/13 09:49:21;;;;;;;11.45;3.20;;;8.10;99.90;;;;;;5018902;28;20123;-83
2020/12/13 09:51:48;;;;;;;7.88;3.33;;;8.10;99.90;;;;;;5016613;28;20606;-81
2020/12/13 09:54:13;;;;;;;7.30;3.72;;;8.20;99.90;;;;;;5020714;28;20046;-85
2020/12/13 09:56:39;;;;;;;7.18;3.25;;;8.20;99.90;;;;;;5019216;28;20052;-83
2020/12/13 09:59:04;;;;;;;5.45;3.00;;;8.20;99.90;;;;;;5008640;28;20060;-85
2020/12/13 10:01:33;;;;;;;10.50;3.03;;;8.30;99.90;;;;;;4996193;28;20121;-86
2020/12/13 10:03:59;;;;;;;4.43;3.00;;;8.30;99.90;;;;;;5008907;28;20091;-83
2020/12/13 10:09:09;;;;;;;5.85;3.50;;;8.40;99.90;;;;;;5019011;28;20049;-85
2020/12/13 10:11:38;;;;;;;8.18;3.28;;;8.40;99.90;;;;;;5019839;28;20042;-85
2020/12/13 10:14:06;;;;;;;9.93;3.03;;;8.50;99.90;;;;;;5036375;28;20065;-83
2020/12/13 10:16:33;;;;;;;6.78;2.40;;;8.50;99.90;;;;;;5022452;28;20061;-82
2020/12/13 10:18:59;;;;;;;6.45;2.60;;;8.50;99.90;;;;;;5029071;28;20038;-82
2020/12/13 10:21:27;;;;;;;6.88;3.53;;;8.60;99.90;;;;;;5031634;28;20041;-81
2020/12/13 10:23:53;;;;;;;7.47;2.42;;;8.50;99.90;;;;;;5020842;28;20122;-83
2020/12/13 10:26:26;;;;;;;5.38;2.50;;;8.50;99.90;;;;;;5035016;28;20045;-81
2020/12/13 10:28:53;;;;;;;6.45;2.10;;;8.50;99.90;;;;;;5019194;28;20041;-81
2020/12/13 10:31:19;;;;;;;3.53;1.75;;;8.50;99.90;;;;;;5021958;28;20034;-80
2020/12/13 10:33:48;;;;;;;5.03;1.95;;;8.50;99.90;;;;;;5019178;28;20145;-80
2020/12/13 10:36:14;;;;;;;6.35;1.58;;;8.60;99.90;;;;;;5020321;28;20050;-80
2020/12/13 10:38:40;;;;;;;3.70;1.50;;;8.60;99.90;;;;;;5015636;28;20096;-81
2020/12/13 10:41:08;;;;;;;3.25;1.60;;;8.60;99.90;;;;;;5015176;28;20113;-80
2020/12/13 10:43:34;;;;;;;5.85;1.98;;;8.60;99.90;;;;;;5013386;28;20048;-80
2020/12/13 10:46:05;;;;;;;3.65;1.73;;;8.70;99.90;;;;;;5014799;28;20712;-81
2020/12/13 10:48:31;;;;;;;2.30;1.35;;;8.70;99.90;;;;;;5015367;28;20066;-83
2020/12/13 10:50:57;;;;;;;9.52;1.50;;;8.80;99.90;;;;;;5019249;28;20085;-80
2020/12/13 10:53:23;;;;;;;6.35;1.25;;;8.90;99.90;;;;;;5019459;28;20049;-81
2020/12/13 10:55:49;;;;;;;4.03;1.02;;;8.90;98.00;;;;;;5017688;28;20255;-80
2020/12/13 10:58:15;;;;;;;2.10;1.05;;;9.00;98.60;;;;;;5017620;28;20058;-80
2020/12/13 11:00:40;;;;;;;3.38;1.38;;;9.00;97.60;;;;;;5010299;28;20093;-79
2020/12/13 11:03:06;;;;;;;4.22;1.50;;;9.00;96.60;;;;;;5018418;28;20042;-83
2020/12/13 11:05:32;;;;;;;5.22;1.10;;;9.00;98.20;;;;;;5017897;28;20046;-80
2020/12/13 11:07:57;;;;;;;2.88;1.65;;;9.00;96.40;;;;;;5017891;28;20060;-80
2020/12/13 11:10:23;;;;;;;9.75;1.33;;;9.00;96.10;;;;;;5014708;28;20042;-82
2020/12/13 11:12:48;;;;;;;4.10;1.50;;;8.90;95.30;;;;;;5020031;28;20026;-82
2020/12/13 11:15:14;;;;;;;2.53;1.17;;;8.90;94.50;;;;;;5023847;28;20037;-80
2020/12/13 11:17:39;;;;;;;5.82;1.42;;;8.90;95.10;;;;;;5022443;28;20038;-80
2020/12/13 11:20:05;;;;;;;6.57;1.80;;;8.80;93.90;;;;;;5013249;28;20030;-80
2020/12/13 11:22:31;;;;;;;6.20;1.55;;;8.80;95.00;;;;;;5030014;28;20050;-79
2020/12/13 11:24:56;;;;;;;5.00;1.52;;;8.80;96.00;;;;;;5000010;28;20720;-79
2020/12/13 11:27:22;;;;;;;4.60;1.60;;;8.80;96.30;;;;;;5013523;28;20104;-80
2020/12/13 11:29:48;;;;;;;6.13;1.65;;;8.90;97.30;;;;;;5015459;28;20106;-80
2020/12/13 11:32:13;;;;;;;4.75;1.80;;;8.80;97.10;;;;;;5016693;28;20574;-81
2020/12/13 11:34:39;;;;;;;3.45;1.75;;;8.80;98.40;;;;;;5010525;28;20622;-80
2020/12/13 11:37:05;;;;;;;8.45;2.00;;;8.80;98.60;;;;;;5011743;28;20635;-82
2020/12/13 11:39:31;;;;;;;4.00;1.65;;;8.70;99.80;;;;;;5017792;28;20183;-81
2020/12/13 11:42:00;;;;;;;5.20;1.50;;;8.70;97.60;;;;;;5011933;28;20091;-79
2020/12/13 11:44:26;;;;;;;4.50;1.30;;;8.60;98.70;;;;;;5019732;28;20072;-80
2020/12/13 11:46:52;;;;;;;5.95;1.67;;;8.60;98.70;;;;;;5017877;28;20057;-81
2020/12/13 11:49:18;;;;;;;2.95;1.10;;;8.50;97.20;;;;;;5019593;28;20034;-80
2020/12/13 11:51:44;;;;;;;3.10;1.58;;;8.50;97.30;;;;;;5020155;28;20040;-80
2020/12/13 11:54:10;;;;;;;3.97;1.35;;;8.50;97.40;;;;;;5015639;28;20117;-81
2020/12/13 11:56:36;;;;;;;4.00;1.60;;;8.40;98.40;;;;;;5013929;28;20046;-80
2020/12/13 11:59:02;;;;;;;2.17;1.30;;;8.40;99.00;;;;;;5012105;28;20939;-81
2020/12/13 12:01:28;;;;;;;2.92;1.48;;;8.40;97.50;;;;;;5013661;28;20034;-79
2020/12/13 12:03:53;;;;;;;3.13;1.40;;;8.40;98.10;;;;;;5012862;28;20071;-80
2020/12/13 12:06:19;;;;;;;5.65;1.50;;;8.40;97.60;;;;;;5013770;28;20046;-80
2020/12/13 12:08:45;;;;;;;6.72;1.33;;;8.40;98.70;;;;;;5015648;28;20597;-81
2020/12/13 12:11:17;;;;;;;3.08;1.35;;;8.40;98.40;;;;;;5015289;28;20058;-81
2020/12/13 12:13:44;;;;;;;5.18;1.20;;;8.40;98.00;;;;;;5017630;28;20038;-80
2020/12/13 12:16:09;;;;;;;2.47;1.17;;;8.30;96.90;;;;;;5017006;28;21023;-81
2020/12/13 12:18:35;;;;;;;2.70;0.88;;;8.30;96.90;;;;;;5018681;28;20046;-81
2020/12/13 12:21:11;;;;;;;3.08;1.27;;;8.30;96.10;;;;;;5017270;28;20048;-80
2020/12/13 12:23:36;;;;;;;1.80;0.90;;;8.30;97.80;;;;;;5018333;28;20057;-81
2020/12/13 12:26:02;;;;;;;4.07;1.10;;;8.30;97.90;;;;;;5018472;28;20034;-81
2020/12/13 12:28:27;;;;;;;3.10;1.15;;;8.30;97.90;;;;;;5013078;28;20044;-81
2020/12/13 12:30:53;;;;;;;3.95;0.95;;;8.30;97.80;;;;;;5025576;28;20093;-81
2020/12/13 12:33:18;;;;;;;2.53;0.98;;;8.30;96.60;;;;;;5020089;28;20034;-82
2020/12/13 12:35:44;;;;;;;10.73;1.35;;;8.30;96.60;;;;;;5022424;28;20105;-82
2020/12/13 12:38:10;;;;;;;3.47;1.10;;;8.30;99.20;;;;;;5021111;28;20038;-82
2020/12/13 12:40:36;;;;;;;4.40;1.33;;;8.30;98.50;;;;;;5021385;28;20041;-82
2020/12/13 12:43:01;;;;;;;4.68;1.17;;;8.40;98.60;;;;;;5021247;28;20052;-81
2020/12/13 12:45:27;;;;;;;4.05;1.20;;;8.40;96.70;;;;;;5021347;28;20500;-81
2020/12/13 12:47:53;;;;;;;4.30;1.25;;;8.40;96.50;;;;;;5024366;28;20047;-81
2020/12/13 12:50:18;;;;;;;5.65;1.58;;;8.40;96.20;;;;;;5022870;28;20026;-81
2020/12/13 12:52:44;;;;;;;5.03;1.25;;;8.30;95.70;;;;;;5022313;28;20049;-82
2020/12/13 12:55:09;;;;;;;7.05;1.50;;;8.30;96.60;;;;;;5022451;28;20052;-82
2020/12/13 12:57:35;;;;;;;5.43;1.40;;;8.30;96.60;;;;;;5022057;28;20041;-81
2020/12/13 13:02:29;;;;;;;5.00;1.52;;;8.30;97.00;;;;;;5024385;28;20045;-82
2020/12/13 13:05:09;;;;;;;3.83;1.50;;;8.30;98.60;;;;;;5023618;28;20029;-82
2020/12/13 13:07:38;;;;;;;7.85;1.88;;;8.30;98.00;;;;;;5024490;28;20057;-82
2020/12/13 13:12:38;;;;;;;6.22;2.10;;;8.20;97.80;;;;;;5025098;28;20088;-80